Klemme/'s Corner

Nearby METAR Reports

 

KI67 - Harrison, Ohio, USA
Distance from station: ESE 14mi, 23km
Updated: Sun, 23-Sep-2018 6:15pm EDT
Mostly cloudy
Mostly cloudy
 Wind from E
Wind: E 3 mph , 6 km/h
Temperature: 70°F , 21°C
Dew Point: 55°F , 13°C
Humidity: 60%
Barometer: 30.09 inHg , 1019 hPa
Clouds: Mostly cloudy
Visibility: 10 miles , 16 km
Cloud details: Mostly cloudy 4600 ft
2018/09/23 22:15 KI67 232215Z AUTO 09003KT 10SM BKN046 21/13 A3009 RMK AO1
KHAO - Hamilton, Ohio, USA
Distance from station: E 26mi, 42km
Updated: Sun, 23-Sep-2018 5:53pm EDT
Overcast
Overcast
 Wind from E
Wind: E 7 mph , 11 km/h
Temperature: 72°F , 22°C
Dew Point: 57°F , 14°C
Humidity: 61%
Barometer: 30.11 inHg , 1019.6 hPa
Clouds: Overcast
Visibility: 10 miles , 16 km
Cloud details: Overcast 4800 ft
2018/09/23 21:53 KHAO 232153Z AUTO 10006KT 10SM OVC048 22/14 A3011 RMK AO2 SLP192 T02170139
 
KCVG - Covington, Kentucky, USA
Distance from station: SE 28mi, 45km
Updated: Sun, 23-Sep-2018 5:52pm EDT
Overcast
Overcast
 Wind from ENE
Wind: ENE 10 mph , 17 km/h
Temperature: 70°F , 21°C
Dew Point: 59°F , 15°C
Humidity: 69%
Barometer: 30.09 inHg , 1019 hPa
Clouds: Overcast
Visibility: 10 miles , 16 km
Cloud details: Mostly cloudy 3200 ft
Overcast 3600 ft
2018/09/23 21:52 KCVG 232152Z 07009KT 10SM BKN032 OVC036 21/15 A3009 RMK AO2 SLP184 T02060150
KRID - Richmond, Indiana, USA
Distance from station: NNE 29mi, 46km
Updated: Sun, 23-Sep-2018 6:15pm EDT
Overcast
Overcast
 Wind from E
Wind: E 7 mph , 11 km/h
Temperature: 72°F , 22°C
Dew Point: 45°F , 7°C
Humidity: 38%
Barometer: 30.12 inHg , 1020 hPa
Clouds: Overcast
Visibility: 10 miles , 16 km
Cloud details: Overcast 5500 ft
2018/09/23 22:15 KRID 232215Z AUTO 10006KT 10SM OVC055 22/07 A3012 RMK AO2
 
KMWO - Middletown/Hook, Ohio, USA
Distance from station: ENE 35mi, 56km
Updated: Sun, 23-Sep-2018 6:15pm EDT
Overcast
Overcast
 Wind from E
Wind: E 8 mph , 13 km/h
Temperature: 72°F , 22°C
Dew Point: 57°F , 14°C
Humidity: 61%
Barometer: 30.10 inHg , 1019.3 hPa
Clouds: Overcast
Visibility: 10 miles , 16 km
Cloud details: Overcast 5500 ft
2018/09/23 22:15 KMWO 232215Z AUTO 09007KT 10SM OVC055 22/14 A3010 RMK AO2 T02170136
KLUK - Cincinnat/Lunken, Ohio, USA
Distance from station: ESE 36mi, 58km
Updated: Sun, 23-Sep-2018 5:53pm EDT
Overcast
Overcast
 Wind from ENE
Wind: ENE 6 mph , 9 km/h
Temperature: 70°F , 21°C
Dew Point: 61°F , 16°C
Humidity: 73%
Barometer: 30.10 inHg , 1019.3 hPa
Clouds: Overcast
Visibility: 10 miles , 16 km
Cloud details: Overcast 2100 ft
2018/09/23 21:53 KLUK 232153Z 07005KT 10SM OVC021 21/16 A3010 RMK AO2 SLP191 T02110156
 
KMGY - Dayton, Ohio, USA
Distance from station: ENE 45mi, 72km
Updated: Sun, 23-Sep-2018 5:53pm EDT
Overcast
Overcast
 Wind from E
Wind: E 7 mph , 11 km/h
Temperature: 72°F , 22°C
Dew Point: 54°F , 12°C
Humidity: 53%
Barometer: 30.11 inHg , 1019.6 hPa
Clouds: Overcast
Visibility: 10 miles , 16 km
Cloud details: Overcast 5500 ft
2018/09/23 21:53 KMGY 232153Z AUTO 10006KT 10SM OVC055 22/12 A3011 RMK AO2 SLP191 T02220122
KGEZ - Shelbyville, Indiana, USA
Distance from station: WNW 45mi, 73km
Updated: Sun, 23-Sep-2018 5:53pm EDT
Overcast
Overcast
 Wind from E
Wind: E 8 mph , 13 km/h
Temperature: 79°F , 26°C
Dew Point: 52°F , 11°C
Humidity: 39%
Barometer: 30.06 inHg , 1017.9 hPa
Clouds: Overcast
Visibility: 10 miles , 16 km
Cloud details: Overcast 5000 ft
2018/09/23 21:53 KGEZ 232153Z AUTO 09007KT 10SM OVC050 26/11 A3006 RMK AO2 SLP175 T02560111
 
KI69 - Batavia, Ohio, USA
Distance from station: ESE 46mi, 74km
Updated: Sun, 23-Sep-2018 6:17pm EDT
Overcast
Overcast
 Wind from calm
Wind: Calm
Temperature: 68°F , 20°C
Dew Point: 59°F , 15°C
Humidity: 73%
Barometer: 30.11 inHg , 1019.6 hPa
Clouds: Overcast
Visibility: 10 miles , 16 km
Cloud details: Overcast 2800 ft
2018/09/23 22:17 KI69 232217Z AUTO 00000KT 10SM OVC028 20/15 A3011 RMK AO2 T02010145
KIMS - Madison, Indiana, USA
Distance from station: SSW 48mi, 76km
Updated: Sun, 23-Sep-2018 6:15pm EDT
Overcast
Overcast
 Wind from ENE
Wind: ENE 7 mph , 11 km/h
Temperature: 70°F , 21°C
Dew Point: 63°F , 17°C
Humidity: 78%
Barometer: 30.09 inHg , 1019 hPa
Clouds: Overcast
Visibility: 10 miles , 16 km
Cloud details: Overcast 1600 ft
2018/09/23 22:15 KIMS 232215Z AUTO 07006KT 10SM OVC016 21/17 A3009 RMK AO1
 
KBAK - Columbus/Balkala, Indiana, USA
Distance from station: W 48mi, 78km
Updated: Sun, 23-Sep-2018 5:48pm EDT
Mostly cloudy
Mostly cloudy
 Wind from ESE
Wind: ESE 9 mph , 15 km/h
Temperature: 73°F , 23°C
Dew Point: 54°F , 12°C
Humidity: 50%
Barometer: 30.06 inHg , 1017.9 hPa
Clouds: Mostly cloudy
Visibility: 10 miles , 16 km
Cloud details: Mostly cloudy 4500 ft
2018/09/23 21:48 KBAK 232148Z 11008KT 10SM BKN045 23/12 A3006